Terminal Aerodrome Forecast
Issued by NWS

Home | Current Version | Previous Version | Text Only | Print | Product List | Glossary On
Versions: 1 2 3 4 5 6 7 8 9 10 11 12 13 14 15
000
FTUS43 KLSX 200500
TAFUIN
TAF
KUIN 200520Z 2006/2106 04006KT P6SM OVC150
     FM201000 07009KT P6SM VCSH OVC080
     FM201300 06010KT 6SM -RA OVC050
     FM201700 05009KT 6SM -RA BR OVC015
     FM202300 02006KT 6SM BR BKN025=

USA.gov is the U.S. government's official web portal to all federal, state and local government web resources and services.